Terminal Aerodrome Forecast
Issued by NWS

Home | Current Version | Previous Version | Text Only | Print | Product List | Glossary On
Versions: 1 2 3 4 5 6 7 8 9 10 11 12 13 14 15 16 17 18 19 20 21 22 23 24
000
FTAK31 PANC 041736
TAFAHO
TAF
PAHO 041736Z 0418/0518 VRB03KT P6SM VCSH SCT030 BKN060
     FM050300 23004KT P6SM BKN022
     FM050600 VRB03KT P6SM BKN008=

USA.gov is the U.S. government's official web portal to all federal, state and local government web resources and services.